sensor_id;sensor_type;location;lat;lon;timestamp;temperature;humidity
1812;DHT22;904;47.814;11.134;2023-11-19T00:00:07;7.80;95.60
1812;DHT22;904;47.814;11.134;2023-11-19T00:02:37;7.90;95.70
1812;DHT22;904;47.814;11.134;2023-11-19T00:05:07;7.90;95.70
1812;DHT22;904;47.814;11.134;2023-11-19T00:07:37;7.80;95.60
1812;DHT22;904;47.814;11.134;2023-11-19T00:10:07;7.80;95.60
1812;DHT22;904;47.814;11.134;2023-11-19T00:12:36;7.80;95.40
1812;DHT22;904;47.814;11.134;2023-11-19T00:15:06;7.80;95.50
1812;DHT22;904;47.814;11.134;2023-11-19T00:17:37;7.80;95.60
1812;DHT22;904;47.814;11.134;2023-11-19T00:20:07;7.80;95.60
1812;DHT22;904;47.814;11.134;2023-11-19T00:22:34;7.80;95.50
1812;DHT22;904;47.814;11.134;2023-11-19T00:25:01;7.80;95.50
1812;DHT22;904;47.814;11.134;2023-11-19T00:27:29;7.80;95.70
1812;DHT22;904;47.814;11.134;2023-11-19T00:29:56;7.80;95.90
1812;DHT22;904;47.814;11.134;2023-11-19T00:32:24;7.80;96.70
1812;DHT22;904;47.814;11.134;2023-11-19T00:34:50;7.80;96.40
1812;DHT22;904;47.814;11.134;2023-11-19T00:37:19;7.80;96.20
1812;DHT22;904;47.814;11.134;2023-11-19T00:39:46;7.80;96.40
1812;DHT22;904;47.814;11.134;2023-11-19T00:42:13;7.80;96.40
1812;DHT22;904;47.814;11.134;2023-11-19T00:44:40;7.80;96.70
1812;DHT22;904;47.814;11.134;2023-11-19T00:47:07;7.80;97.00
1812;DHT22;904;47.814;11.134;2023-11-19T00:49:34;7.80;97.10
1812;DHT22;904;47.814;11.134;2023-11-19T00:52:01;7.80;97.40
1812;DHT22;904;47.814;11.134;2023-11-19T00:54:30;7.80;97.50
1812;DHT22;904;47.814;11.134;2023-11-19T00:56:57;7.80;97.60
1812;DHT22;904;47.814;11.134;2023-11-19T00:59:23;7.90;97.70
1812;DHT22;904;47.814;11.134;2023-11-19T01:01:50;7.80;97.90
1812;DHT22;904;47.814;11.134;2023-11-19T01:04:17;7.90;98.30
1812;DHT22;904;47.814;11.134;2023-11-19T01:06:44;8.00;98.40
1812;DHT22;904;47.814;11.134;2023-11-19T01:09:11;8.00;98.70
1812;DHT22;904;47.814;11.134;2023-11-19T01:11:40;8.00;99.20
1812;DHT22;904;47.814;11.134;2023-11-19T01:14:06;8.10;99.30
1812;DHT22;904;47.814;11.134;2023-11-19T01:16:33;8.10;99.40
1812;DHT22;904;47.814;11.134;2023-11-19T01:18:59;8.20;99.50
1812;DHT22;904;47.814;11.134;2023-11-19T01:21:30;8.30;99.70
1812;DHT22;904;47.814;11.134;2023-11-19T01:23:57;8.30;99.70
1812;DHT22;904;47.814;11.134;2023-11-19T01:26:25;8.40;99.50
1812;DHT22;904;47.814;11.134;2023-11-19T01:28:53;8.50;99.40
1812;DHT22;904;47.814;11.134;2023-11-19T01:31:20;8.50;99.50
1812;DHT22;904;47.814;11.134;2023-11-19T01:33:47;8.50;99.60
1812;DHT22;904;47.814;11.134;2023-11-19T01:36:14;8.50;99.70
1812;DHT22;904;47.814;11.134;2023-11-19T01:38:41;8.50;99.50
1812;DHT22;904;47.814;11.134;2023-11-19T01:41:08;8.60;99.70
1812;DHT22;904;47.814;11.134;2023-11-19T01:43:35;8.60;99.60
1812;DHT22;904;47.814;11.134;2023-11-19T01:46:05;8.70;99.60
1812;DHT22;904;47.814;11.134;2023-11-19T01:48:36;8.60;99.60
1812;DHT22;904;47.814;11.134;2023-11-19T01:51:07;8.70;99.70
1812;DHT22;904;47.814;11.134;2023-11-19T01:53:35;8.70;99.80
1812;DHT22;904;47.814;11.134;2023-11-19T01:56:04;8.70;99.80
1812;DHT22;904;47.814;11.134;2023-11-19T01:58:32;8.70;99.90
1812;DHT22;904;47.814;11.134;2023-11-19T02:01:00;8.70;99.90
1812;DHT22;904;47.814;11.134;2023-11-19T02:03:31;8.70;99.90
1812;DHT22;904;47.814;11.134;2023-11-19T02:05:59;8.70;99.90
1812;DHT22;904;47.814;11.134;2023-11-19T02:08:26;8.80;99.90
1812;DHT22;904;47.814;11.134;2023-11-19T02:10:53;8.80;99.80
1812;DHT22;904;47.814;11.134;2023-11-19T02:13:22;8.80;99.90
1812;DHT22;904;47.814;11.134;2023-11-19T02:15:50;8.80;99.90
1812;DHT22;904;47.814;11.134;2023-11-19T02:18:18;8.90;99.90
1812;DHT22;904;47.814;11.134;2023-11-19T02:20:49;8.90;99.60
1812;DHT22;904;47.814;11.134;2023-11-19T02:23:17;8.80;99.90
1812;DHT22;904;47.814;11.134;2023-11-19T02:25:54;8.90;99.90
1812;DHT22;904;47.814;11.134;2023-11-19T02:28:26;8.90;99.90
1812;DHT22;904;47.814;11.134;2023-11-19T02:30:53;8.80;99.90
1812;DHT22;904;47.814;11.134;2023-11-19T02:33:20;8.80;99.90
1812;DHT22;904;47.814;11.134;2023-11-19T02:35:47;8.90;99.90
1812;DHT22;904;47.814;11.134;2023-11-19T02:38:14;8.80;99.90
1812;DHT22;904;47.814;11.134;2023-11-19T02:40:41;8.90;99.90
1812;DHT22;904;47.814;11.134;2023-11-19T02:43:08;8.90;99.90
1812;DHT22;904;47.814;11.134;2023-11-19T02:45:36;8.90;99.90
1812;DHT22;904;47.814;11.134;2023-11-19T02:48:03;9.00;99.90
1812;DHT22;904;47.814;11.134;2023-11-19T02:50:32;9.00;99.90
1812;DHT22;904;47.814;11.134;2023-11-19T02:52:59;9.10;99.90
1812;DHT22;904;47.814;11.134;2023-11-19T02:55:26;9.10;99.90
1812;DHT22;904;47.814;11.134;2023-11-19T02:57:56;9.20;99.90
1812;DHT22;904;47.814;11.134;2023-11-19T03:00:25;9.30;99.90
1812;DHT22;904;47.814;11.134;2023-11-19T03:03:02;9.30;99.90
1812;DHT22;904;47.814;11.134;2023-11-19T03:05:43;9.40;99.90
1812;DHT22;904;47.814;11.134;2023-11-19T03:08:10;9.40;99.90
1812;DHT22;904;47.814;11.134;2023-11-19T03:10:38;9.50;99.90
1812;DHT22;904;47.814;11.134;2023-11-19T03:13:05;9.50;99.90
1812;DHT22;904;47.814;11.134;2023-11-19T03:15:33;9.50;99.90
1812;DHT22;904;47.814;11.134;2023-11-19T03:18:04;9.50;99.90
1812;DHT22;904;47.814;11.134;2023-11-19T03:20:31;9.50;99.90
1812;DHT22;904;47.814;11.134;2023-11-19T03:22:58;9.60;99.90
1812;DHT22;904;47.814;11.134;2023-11-19T03:25:25;9.70;99.90
1812;DHT22;904;47.814;11.134;2023-11-19T03:27:52;9.90;99.90
1812;DHT22;904;47.814;11.134;2023-11-19T03:30:19;10.10;99.90
1812;DHT22;904;47.814;11.134;2023-11-19T03:32:47;10.20;99.90
1812;DHT22;904;47.814;11.134;2023-11-19T03:35:16;10.40;99.90
1812;DHT22;904;47.814;11.134;2023-11-19T03:37:43;10.60;99.90
1812;DHT22;904;47.814;11.134;2023-11-19T03:40:11;10.70;99.90
1812;DHT22;904;47.814;11.134;2023-11-19T03:42:38;10.80;99.90
1812;DHT22;904;47.814;11.134;2023-11-19T03:45:06;10.90;99.90
1812;DHT22;904;47.814;11.134;2023-11-19T03:47:34;11.00;99.90
1812;DHT22;904;47.814;11.134;2023-11-19T03:50:01;11.10;99.90
1812;DHT22;904;47.814;11.134;2023-11-19T03:52:30;11.20;99.90
1812;DHT22;904;47.814;11.134;2023-11-19T03:54:57;11.30;99.90
1812;DHT22;904;47.814;11.134;2023-11-19T03:57:24;11.30;99.90
1812;DHT22;904;47.814;11.134;2023-11-19T03:59:51;11.40;99.90
1812;DHT22;904;47.814;11.134;2023-11-19T04:02:18;11.40;99.90
1812;DHT22;904;47.814;11.134;2023-11-19T04:04:45;11.50;99.90
1812;DHT22;904;47.814;11.134;2023-11-19T04:07:12;11.60;99.90
1812;DHT22;904;47.814;11.134;2023-11-19T04:09:40;11.60;99.90
1812;DHT22;904;47.814;11.134;2023-11-19T04:12:07;11.60;99.90
1812;DHT22;904;47.814;11.134;2023-11-19T04:14:36;11.70;99.90
1812;DHT22;904;47.814;11.134;2023-11-19T04:17:03;11.70;99.90
1812;DHT22;904;47.814;11.134;2023-11-19T04:19:30;11.70;99.90
1812;DHT22;904;47.814;11.134;2023-11-19T04:21:58;11.80;99.90
1812;DHT22;904;47.814;11.134;2023-11-19T04:24:25;11.80;99.90
1812;DHT22;904;47.814;11.134;2023-11-19T04:26:53;11.80;99.90
1812;DHT22;904;47.814;11.134;2023-11-19T04:29:20;11.80;99.90
1812;DHT22;904;47.814;11.134;2023-11-19T04:31:47;11.80;99.90
1812;DHT22;904;47.814;11.134;2023-11-19T04:34:14;11.80;99.90
1812;DHT22;904;47.814;11.134;2023-11-19T04:36:41;11.90;99.90
1812;DHT22;904;47.814;11.134;2023-11-19T04:39:09;11.90;99.90
1812;DHT22;904;47.814;11.134;2023-11-19T04:41:45;11.90;99.90
1812;DHT22;904;47.814;11.134;2023-11-19T04:44:14;11.90;99.90
1812;DHT22;904;47.814;11.134;2023-11-19T04:46:42;12.00;99.90
1812;DHT22;904;47.814;11.134;2023-11-19T04:49:09;12.00;99.90
1812;DHT22;904;47.814;11.134;2023-11-19T04:51:39;11.90;99.90
1812;DHT22;904;47.814;11.134;2023-11-19T04:54:06;12.00;99.90
1812;DHT22;904;47.814;11.134;2023-11-19T04:56:34;12.00;99.90
1812;DHT22;904;47.814;11.134;2023-11-19T04:59:01;12.00;99.90
1812;DHT22;904;47.814;11.134;2023-11-19T05:01:30;12.00;99.90
1812;DHT22;904;47.814;11.134;2023-11-19T05:03:57;12.00;99.90
1812;DHT22;904;47.814;11.134;2023-11-19T05:06:26;12.00;99.90
1812;DHT22;904;47.814;11.134;2023-11-19T05:08:55;12.00;99.90
1812;DHT22;904;47.814;11.134;2023-11-19T05:11:22;12.00;99.90
1812;DHT22;904;47.814;11.134;2023-11-19T05:13:49;12.00;99.90
1812;DHT22;904;47.814;11.134;2023-11-19T05:16:16;12.00;99.90
1812;DHT22;904;47.814;11.134;2023-11-19T05:18:44;12.00;99.90
1812;DHT22;904;47.814;11.134;2023-11-19T05:21:11;12.00;99.90
1812;DHT22;904;47.814;11.134;2023-11-19T05:23:38;12.00;99.90
1812;DHT22;904;47.814;11.134;2023-11-19T05:26:06;12.00;99.90
1812;DHT22;904;47.814;11.134;2023-11-19T05:28:33;12.00;99.90
1812;DHT22;904;47.814;11.134;2023-11-19T05:31:00;12.00;99.90
1812;DHT22;904;47.814;11.134;2023-11-19T05:33:27;12.00;99.90
1812;DHT22;904;47.814;11.134;2023-11-19T05:35:55;12.00;99.90
1812;DHT22;904;47.814;11.134;2023-11-19T05:38:22;12.00;99.90
1812;DHT22;904;47.814;11.134;2023-11-19T05:40:49;12.00;99.90
1812;DHT22;904;47.814;11.134;2023-11-19T05:43:16;12.00;99.90
1812;DHT22;904;47.814;11.134;2023-11-19T05:45:43;12.00;99.90
1812;DHT22;904;47.814;11.134;2023-11-19T05:48:10;12.00;99.90
1812;DHT22;904;47.814;11.134;2023-11-19T05:50:37;12.00;99.90
1812;DHT22;904;47.814;11.134;2023-11-19T05:53:05;12.00;99.90
1812;DHT22;904;47.814;11.134;2023-11-19T05:55:35;12.00;99.90
1812;DHT22;904;47.814;11.134;2023-11-19T05:58:10;12.00;99.90
1812;DHT22;904;47.814;11.134;2023-11-19T06:00:38;12.00;99.90
1812;DHT22;904;47.814;11.134;2023-11-19T06:03:05;12.00;99.90
1812;DHT22;904;47.814;11.134;2023-11-19T06:05:32;12.00;99.90
1812;DHT22;904;47.814;11.134;2023-11-19T06:07:59;12.00;99.90
1812;DHT22;904;47.814;11.134;2023-11-19T06:10:28;12.00;99.90
1812;DHT22;904;47.814;11.134;2023-11-19T06:12:57;12.00;99.90
1812;DHT22;904;47.814;11.134;2023-11-19T06:15:25;12.00;99.90
1812;DHT22;904;47.814;11.134;2023-11-19T06:17:52;12.00;99.90
1812;DHT22;904;47.814;11.134;2023-11-19T06:20:20;12.00;99.90
1812;DHT22;904;47.814;11.134;2023-11-19T06:22:47;12.00;99.90
1812;DHT22;904;47.814;11.134;2023-11-19T06:25:14;12.00;99.90
1812;DHT22;904;47.814;11.134;2023-11-19T06:27:43;12.00;99.90
1812;DHT22;904;47.814;11.134;2023-11-19T06:30:11;12.00;99.90
1812;DHT22;904;47.814;11.134;2023-11-19T06:32:38;12.00;99.90
1812;DHT22;904;47.814;11.134;2023-11-19T06:35:05;12.00;99.90
1812;DHT22;904;47.814;11.134;2023-11-19T06:37:33;12.00;99.90
1812;DHT22;904;47.814;11.134;2023-11-19T06:40:00;12.00;99.90
1812;DHT22;904;47.814;11.134;2023-11-19T06:42:27;12.00;99.90
1812;DHT22;904;47.814;11.134;2023-11-19T06:44:55;12.00;99.90
1812;DHT22;904;47.814;11.134;2023-11-19T06:47:25;12.00;99.90
1812;DHT22;904;47.814;11.134;2023-11-19T06:49:52;12.10;99.90
1812;DHT22;904;47.814;11.134;2023-11-19T06:52:19;12.10;99.90
1812;DHT22;904;47.814;11.134;2023-11-19T06:54:46;12.00;99.90
1812;DHT22;904;47.814;11.134;2023-11-19T06:57:13;12.00;99.90
1812;DHT22;904;47.814;11.134;2023-11-19T06:59:40;12.00;99.90
1812;DHT22;904;47.814;11.134;2023-11-19T07:02:09;12.10;99.90
1812;DHT22;904;47.814;11.134;2023-11-19T07:04:35;12.00;99.90
1812;DHT22;904;47.814;11.134;2023-11-19T07:07:03;12.00;99.90
1812;DHT22;904;47.814;11.134;2023-11-19T07:09:31;12.10;99.90
1812;DHT22;904;47.814;11.134;2023-11-19T07:11:58;12.10;99.90
1812;DHT22;904;47.814;11.134;2023-11-19T07:14:27;12.10;99.90
1812;DHT22;904;47.814;11.134;2023-11-19T07:16:54;12.10;99.90
1812;DHT22;904;47.814;11.134;2023-11-19T07:19:22;12.10;99.90
1812;DHT22;904;47.814;11.134;2023-11-19T07:21:49;12.20;99.90
1812;DHT22;904;47.814;11.134;2023-11-19T07:24:16;12.20;99.90
1812;DHT22;904;47.814;11.134;2023-11-19T07:26:45;12.20;99.90
1812;DHT22;904;47.814;11.134;2023-11-19T07:29:12;12.20;99.90
1812;DHT22;904;47.814;11.134;2023-11-19T07:31:40;12.20;99.90
1812;DHT22;904;47.814;11.134;2023-11-19T07:34:07;12.20;99.90
1812;DHT22;904;47.814;11.134;2023-11-19T07:36:36;12.20;99.90
1812;DHT22;904;47.814;11.134;2023-11-19T07:39:03;12.20;99.90
1812;DHT22;904;47.814;11.134;2023-11-19T07:41:30;12.30;99.90
1812;DHT22;904;47.814;11.134;2023-11-19T07:43:57;12.30;99.90
1812;DHT22;904;47.814;11.134;2023-11-19T07:46:25;12.30;99.90
1812;DHT22;904;47.814;11.134;2023-11-19T07:48:52;12.30;99.90
1812;DHT22;904;47.814;11.134;2023-11-19T07:51:19;12.30;99.90
1812;DHT22;904;47.814;11.134;2023-11-19T07:53:48;12.30;99.90
1812;DHT22;904;47.814;11.134;2023-11-19T07:56:15;12.30;99.90
1812;DHT22;904;47.814;11.134;2023-11-19T07:58:42;12.30;99.90
1812;DHT22;904;47.814;11.134;2023-11-19T08:01:09;12.30;99.90
1812;DHT22;904;47.814;11.134;2023-11-19T08:03:36;12.30;99.90
1812;DHT22;904;47.814;11.134;2023-11-19T08:06:05;12.40;99.90
1812;DHT22;904;47.814;11.134;2023-11-19T08:08:33;12.50;99.90
1812;DHT22;904;47.814;11.134;2023-11-19T08:11:02;12.50;99.90
1812;DHT22;904;47.814;11.134;2023-11-19T08:13:30;12.50;99.90
1812;DHT22;904;47.814;11.134;2023-11-19T08:15:57;12.70;99.90
1812;DHT22;904;47.814;11.134;2023-11-19T08:18:24;12.60;99.90
1812;DHT22;904;47.814;11.134;2023-11-19T08:20:51;12.70;99.90
1812;DHT22;904;47.814;11.134;2023-11-19T08:23:19;12.70;99.90
1812;DHT22;904;47.814;11.134;2023-11-19T08:25:46;12.70;99.90
1812;DHT22;904;47.814;11.134;2023-11-19T08:28:14;12.80;99.90
1812;DHT22;904;47.814;11.134;2023-11-19T08:30:41;12.80;99.90
1812;DHT22;904;47.814;11.134;2023-11-19T08:33:09;12.80;99.90
1812;DHT22;904;47.814;11.134;2023-11-19T08:35:37;12.90;99.90
1812;DHT22;904;47.814;11.134;2023-11-19T08:38:04;12.90;99.90
1812;DHT22;904;47.814;11.134;2023-11-19T08:40:31;12.90;99.90
1812;DHT22;904;47.814;11.134;2023-11-19T08:42:58;12.80;99.90
1812;DHT22;904;47.814;11.134;2023-11-19T08:45:26;12.90;99.90
1812;DHT22;904;47.814;11.134;2023-11-19T08:47:53;12.90;99.90
1812;DHT22;904;47.814;11.134;2023-11-19T08:50:20;13.00;99.90
1812;DHT22;904;47.814;11.134;2023-11-19T08:52:48;13.00;99.90
1812;DHT22;904;47.814;11.134;2023-11-19T08:55:15;13.00;99.90
1812;DHT22;904;47.814;11.134;2023-11-19T08:57:42;13.00;99.90
1812;DHT22;904;47.814;11.134;2023-11-19T09:00:09;13.10;99.80
1812;DHT22;904;47.814;11.134;2023-11-19T09:02:41;13.10;99.70
1812;DHT22;904;47.814;11.134;2023-11-19T09:05:08;13.20;99.60
1812;DHT22;904;47.814;11.134;2023-11-19T09:07:35;13.20;99.40
1812;DHT22;904;47.814;11.134;2023-11-19T09:10:03;13.20;99.50
1812;DHT22;904;47.814;11.134;2023-11-19T09:12:31;13.20;99.60
1812;DHT22;904;47.814;11.134;2023-11-19T09:14:58;13.40;99.50
1812;DHT22;904;47.814;11.134;2023-11-19T09:17:25;13.40;99.20
1812;DHT22;904;47.814;11.134;2023-11-19T09:19:53;13.50;99.00
1812;DHT22;904;47.814;11.134;2023-11-19T09:22:22;13.60;98.70
1812;DHT22;904;47.814;11.134;2023-11-19T09:24:49;13.60;98.50
1812;DHT22;904;47.814;11.134;2023-11-19T09:27:16;13.60;98.20
1812;DHT22;904;47.814;11.134;2023-11-19T09:29:43;13.70;98.10
1812;DHT22;904;47.814;11.134;2023-11-19T09:32:12;13.80;97.80
1812;DHT22;904;47.814;11.134;2023-11-19T09:34:39;13.80;97.60
1812;DHT22;904;47.814;11.134;2023-11-19T09:37:07;13.90;97.50
1812;DHT22;904;47.814;11.134;2023-11-19T09:39:34;14.00;97.10
1812;DHT22;904;47.814;11.134;2023-11-19T09:42:01;14.10;96.80
1812;DHT22;904;47.814;11.134;2023-11-19T09:44:29;14.10;96.80
1812;DHT22;904;47.814;11.134;2023-11-19T09:46:57;14.20;96.50
1812;DHT22;904;47.814;11.134;2023-11-19T09:49:26;14.30;96.20
1812;DHT22;904;47.814;11.134;2023-11-19T09:51:54;14.40;96.20
1812;DHT22;904;47.814;11.134;2023-11-19T09:54:22;14.60;95.80
1812;DHT22;904;47.814;11.134;2023-11-19T09:56:50;14.90;95.10
1812;DHT22;904;47.814;11.134;2023-11-19T09:59:17;15.20;94.10
1812;DHT22;904;47.814;11.134;2023-11-19T10:01:45;15.40;93.70
1812;DHT22;904;47.814;11.134;2023-11-19T10:04:15;15.50;92.60
1812;DHT22;904;47.814;11.134;2023-11-19T10:06:43;15.70;92.40
1812;DHT22;904;47.814;11.134;2023-11-19T10:09:12;15.90;92.20
1812;DHT22;904;47.814;11.134;2023-11-19T10:11:45;16.10;90.90
1812;DHT22;904;47.814;11.134;2023-11-19T10:14:13;16.30;90.20
1812;DHT22;904;47.814;11.134;2023-11-19T10:16:41;16.30;89.20
1812;DHT22;904;47.814;11.134;2023-11-19T10:19:12;16.10;88.50
1812;DHT22;904;47.814;11.134;2023-11-19T10:21:46;16.10;89.20
1812;DHT22;904;47.814;11.134;2023-11-19T10:24:13;16.10;89.40
1812;DHT22;904;47.814;11.134;2023-11-19T10:26:40;16.00;88.80
1812;DHT22;904;47.814;11.134;2023-11-19T10:29:12;15.90;89.20
1812;DHT22;904;47.814;11.134;2023-11-19T10:31:40;15.80;88.70
1812;DHT22;904;47.814;11.134;2023-11-19T10:34:24;15.60;89.10
1812;DHT22;904;47.814;11.134;2023-11-19T10:36:52;15.50;89.90
1812;DHT22;904;47.814;11.134;2023-11-19T10:39:19;15.40;90.00
1812;DHT22;904;47.814;11.134;2023-11-19T10:41:49;15.30;90.30
1812;DHT22;904;47.814;11.134;2023-11-19T10:47:13;15.20;90.70
1812;DHT22;904;47.814;11.134;2023-11-19T10:49:43;15.30;90.90
1812;DHT22;904;47.814;11.134;2023-11-19T10:52:12;15.30;91.00
1812;DHT22;904;47.814;11.134;2023-11-19T10:54:44;15.20;91.10
1812;DHT22;904;47.814;11.134;2023-11-19T10:57:19;15.30;91.70
1812;DHT22;904;47.814;11.134;2023-11-19T10:59:47;15.50;91.60
1812;DHT22;904;47.814;11.134;2023-11-19T11:02:22;15.70;91.30
1812;DHT22;904;47.814;11.134;2023-11-19T11:04:51;16.00;90.50
1812;DHT22;904;47.814;11.134;2023-11-19T11:07:21;16.20;90.30
1812;DHT22;904;47.814;11.134;2023-11-19T11:09:52;16.60;89.80
1812;DHT22;904;47.814;11.134;2023-11-19T11:12:22;17.00;88.00
1812;DHT22;904;47.814;11.134;2023-11-19T11:14:49;17.50;85.20
1812;DHT22;904;47.814;11.134;2023-11-19T11:17:19;18.00;82.60
1812;DHT22;904;47.814;11.134;2023-11-19T11:19:46;18.00;79.50
1812;DHT22;904;47.814;11.134;2023-11-19T11:22:15;18.00;79.00
1812;DHT22;904;47.814;11.134;2023-11-19T11:28:05;18.20;76.10
1812;DHT22;904;47.814;11.134;2023-11-19T11:30:45;18.40;74.70
1812;DHT22;904;47.814;11.134;2023-11-19T11:33:30;18.80;73.30
1812;DHT22;904;47.814;11.134;2023-11-19T11:36:09;19.00;72.70
1812;DHT22;904;47.814;11.134;2023-11-19T11:38:40;19.20;70.90
1812;DHT22;904;47.814;11.134;2023-11-19T11:41:18;19.20;70.10
1812;DHT22;904;47.814;11.134;2023-11-19T11:43:49;19.80;68.90
1812;DHT22;904;47.814;11.134;2023-11-19T11:46:53;20.20;65.40
1812;DHT22;904;47.814;11.134;2023-11-19T11:52:00;20.40;62.60
1812;DHT22;904;47.814;11.134;2023-11-19T11:54:29;20.40;62.20
1812;DHT22;904;47.814;11.134;2023-11-19T11:57:04;20.40;59.90
1812;DHT22;904;47.814;11.134;2023-11-19T11:59:46;20.40;61.60
1812;DHT22;904;47.814;11.134;2023-11-19T12:02:15;20.60;60.90
1812;DHT22;904;47.814;11.134;2023-11-19T12:04:47;20.80;61.10
1812;DHT22;904;47.814;11.134;2023-11-19T12:07:18;21.00;58.90
1812;DHT22;904;47.814;11.134;2023-11-19T12:09:49;21.10;58.80
1812;DHT22;904;47.814;11.134;2023-11-19T12:12:19;21.60;58.60
1812;DHT22;904;47.814;11.134;2023-11-19T12:15:04;22.20;56.30
1812;DHT22;904;47.814;11.134;2023-11-19T12:17:37;22.90;55.00
1812;DHT22;904;47.814;11.134;2023-11-19T12:20:11;23.00;53.80
1812;DHT22;904;47.814;11.134;2023-11-19T12:22:41;22.90;52.00
1812;DHT22;904;47.814;11.134;2023-11-19T12:25:09;22.60;52.20
1812;DHT22;904;47.814;11.134;2023-11-19T12:27:37;22.40;52.50
1812;DHT22;904;47.814;11.134;2023-11-19T12:30:07;22.20;53.00
1812;DHT22;904;47.814;11.134;2023-11-19T12:32:38;22.10;53.00
1812;DHT22;904;47.814;11.134;2023-11-19T12:35:06;21.90;52.20
1812;DHT22;904;47.814;11.134;2023-11-19T12:37:41;21.50;52.60
1812;DHT22;904;47.814;11.134;2023-11-19T12:40:16;21.20;53.80
1812;DHT22;904;47.814;11.134;2023-11-19T12:42:44;21.20;54.80
1812;DHT22;904;47.814;11.134;2023-11-19T12:45:12;21.10;54.40
1812;DHT22;904;47.814;11.134;2023-11-19T12:47:41;20.90;55.30
1812;DHT22;904;47.814;11.134;2023-11-19T12:50:09;20.80;55.70
1812;DHT22;904;47.814;11.134;2023-11-19T12:52:36;20.70;56.20
1812;DHT22;904;47.814;11.134;2023-11-19T12:55:24;20.50;55.60
1812;DHT22;904;47.814;11.134;2023-11-19T12:57:52;20.50;57.20
1812;DHT22;904;47.814;11.134;2023-11-19T13:00:20;20.40;56.90
1812;DHT22;904;47.814;11.134;2023-11-19T13:02:49;20.20;56.70
1812;DHT22;904;47.814;11.134;2023-11-19T13:05:24;19.90;57.80
1812;DHT22;904;47.814;11.134;2023-11-19T13:07:59;19.60;58.20
1812;DHT22;904;47.814;11.134;2023-11-19T13:10:29;19.30;59.00
1812;DHT22;904;47.814;11.134;2023-11-19T13:13:06;19.10;60.00
1812;DHT22;904;47.814;11.134;2023-11-19T13:15:37;19.20;62.50
1812;DHT22;904;47.814;11.134;2023-11-19T13:18:06;19.40;61.70
1812;DHT22;904;47.814;11.134;2023-11-19T13:20:33;19.50;61.10
1812;DHT22;904;47.814;11.134;2023-11-19T13:23:01;19.40;60.90
1812;DHT22;904;47.814;11.134;2023-11-19T13:25:31;19.10;61.50
1812;DHT22;904;47.814;11.134;2023-11-19T13:27:59;18.70;61.70
1812;DHT22;904;47.814;11.134;2023-11-19T13:30:26;18.40;62.90
1812;DHT22;904;47.814;11.134;2023-11-19T13:32:55;18.30;64.70
1812;DHT22;904;47.814;11.134;2023-11-19T13:35:22;18.30;65.20
1812;DHT22;904;47.814;11.134;2023-11-19T13:37:49;18.30;64.90
1812;DHT22;904;47.814;11.134;2023-11-19T13:40:18;18.10;64.30
1812;DHT22;904;47.814;11.134;2023-11-19T13:42:50;18.20;66.10
1812;DHT22;904;47.814;11.134;2023-11-19T13:45:20;18.40;65.90
1812;DHT22;904;47.814;11.134;2023-11-19T13:47:48;18.40;64.90
1812;DHT22;904;47.814;11.134;2023-11-19T13:50:16;18.20;65.10
1812;DHT22;904;47.814;11.134;2023-11-19T13:52:44;18.00;65.50
1812;DHT22;904;47.814;11.134;2023-11-19T13:55:13;17.80;65.40
1812;DHT22;904;47.814;11.134;2023-11-19T13:57:41;17.50;66.00
1812;DHT22;904;47.814;11.134;2023-11-19T14:00:12;17.30;67.30
1812;DHT22;904;47.814;11.134;2023-11-19T14:02:42;17.10;67.70
1812;DHT22;904;47.814;11.134;2023-11-19T14:05:10;16.90;68.70
1812;DHT22;904;47.814;11.134;2023-11-19T14:07:41;16.80;69.60
1812;DHT22;904;47.814;11.134;2023-11-19T14:10:09;16.60;70.30
1812;DHT22;904;47.814;11.134;2023-11-19T14:12:37;16.40;71.50
1812;DHT22;904;47.814;11.134;2023-11-19T14:15:05;16.40;72.60
1812;DHT22;904;47.814;11.134;2023-11-19T14:17:35;16.30;73.30
1812;DHT22;904;47.814;11.134;2023-11-19T14:20:03;16.20;73.70
1812;DHT22;904;47.814;11.134;2023-11-19T14:22:38;16.20;73.30
1812;DHT22;904;47.814;11.134;2023-11-19T14:25:06;16.20;74.10
1812;DHT22;904;47.814;11.134;2023-11-19T14:27:36;16.10;74.00
1812;DHT22;904;47.814;11.134;2023-11-19T14:30:07;16.00;74.00
1812;DHT22;904;47.814;11.134;2023-11-19T14:32:37;15.90;74.10
1812;DHT22;904;47.814;11.134;2023-11-19T14:35:05;15.70;74.80
1812;DHT22;904;47.814;11.134;2023-11-19T14:37:33;15.60;75.60
1812;DHT22;904;47.814;11.134;2023-11-19T14:40:00;15.50;75.70
1812;DHT22;904;47.814;11.134;2023-11-19T14:42:29;15.40;76.50
1812;DHT22;904;47.814;11.134;2023-11-19T14:44:57;15.40;77.20
1812;DHT22;904;47.814;11.134;2023-11-19T14:47:24;15.30;77.50
1812;DHT22;904;47.814;11.134;2023-11-19T14:49:53;15.10;77.90
1812;DHT22;904;47.814;11.134;2023-11-19T14:52:22;15.00;78.60
1812;DHT22;904;47.814;11.134;2023-11-19T14:54:49;14.90;79.10
1812;DHT22;904;47.814;11.134;2023-11-19T14:57:17;14.80;79.70
1812;DHT22;904;47.814;11.134;2023-11-19T14:59:44;14.70;80.30
1812;DHT22;904;47.814;11.134;2023-11-19T15:02:11;14.60;81.10
1812;DHT22;904;47.814;11.134;2023-11-19T15:04:41;14.50;81.80
1812;DHT22;904;47.814;11.134;2023-11-19T15:07:12;14.50;82.40
1812;DHT22;904;47.814;11.134;2023-11-19T15:09:39;14.40;82.60
1812;DHT22;904;47.814;11.134;2023-11-19T15:12:07;14.30;83.20
1812;DHT22;904;47.814;11.134;2023-11-19T15:14:34;14.30;84.60
1812;DHT22;904;47.814;11.134;2023-11-19T15:17:01;14.20;84.60
1812;DHT22;904;47.814;11.134;2023-11-19T15:19:28;14.20;85.00
1812;DHT22;904;47.814;11.134;2023-11-19T15:21:55;14.20;85.40
1812;DHT22;904;47.814;11.134;2023-11-19T15:24:24;14.10;85.80
1812;DHT22;904;47.814;11.134;2023-11-19T15:26:51;14.10;86.40
1812;DHT22;904;47.814;11.134;2023-11-19T15:29:18;14.00;86.90
1812;DHT22;904;47.814;11.134;2023-11-19T15:31:45;14.10;87.50
1812;DHT22;904;47.814;11.134;2023-11-19T15:34:12;14.10;87.90
1812;DHT22;904;47.814;11.134;2023-11-19T15:36:39;14.10;88.50
1812;DHT22;904;47.814;11.134;2023-11-19T15:39:06;14.00;88.90
1812;DHT22;904;47.814;11.134;2023-11-19T15:41:35;14.00;89.80
1812;DHT22;904;47.814;11.134;2023-11-19T15:44:02;14.00;90.20
1812;DHT22;904;47.814;11.134;2023-11-19T15:46:30;14.00;90.40
1812;DHT22;904;47.814;11.134;2023-11-19T15:48:57;14.00;90.60
1812;DHT22;904;47.814;11.134;2023-11-19T15:51:24;13.90;90.70
1812;DHT22;904;47.814;11.134;2023-11-19T15:53:51;13.90;90.80
1812;DHT22;904;47.814;11.134;2023-11-19T15:56:18;13.90;91.00
1812;DHT22;904;47.814;11.134;2023-11-19T15:58:47;13.80;91.10
1812;DHT22;904;47.814;11.134;2023-11-19T16:01:14;13.80;91.30
1812;DHT22;904;47.814;11.134;2023-11-19T16:03:41;13.80;91.50
1812;DHT22;904;47.814;11.134;2023-11-19T16:06:09;13.70;91.50
1812;DHT22;904;47.814;11.134;2023-11-19T16:08:36;13.70;92.00
1812;DHT22;904;47.814;11.134;2023-11-19T16:11:04;13.60;91.80
1812;DHT22;904;47.814;11.134;2023-11-19T16:13:31;13.50;92.00
1812;DHT22;904;47.814;11.134;2023-11-19T16:15:59;13.50;92.10
1812;DHT22;904;47.814;11.134;2023-11-19T16:18:26;13.50;92.20
1812;DHT22;904;47.814;11.134;2023-11-19T16:20:54;13.40;92.50